Amherst, New Hampshire
Current Conditions -  °F | °C
As of 8:20 PM on Monday 26 Jan 2015 (Local Time) from KMHT Reporting Station
Light Snow Light Snow  
Wind Chill:   Ceiling: 2000
Heat Index: 17°   Visibility: 2.5mi
Dew Point:   Wind: 17mph
Humidity: 71%   Direction: 20°NNE
Pressure: 30.05"   Gusts: 26mph
Location:  42.86°N, 71.63°W
Report Text: KMHT 270120Z 02015G23KT 2 1/2SM -SN OVC020 M08/M13 A3005 RMK AO2 TWR VIS 4 P0000 T10831128
Loading
Personal Weather Stations






























Interactive Weather Map New forecast layout! Learn more

10-Day Weather Forecast

Advertisements
Track Severe Weather on mobile